Time;durP1;ratioP1;P1;durP2;ratioP2;P2;SDS_P1;SDS_P2;PMS_P1;PMS_P2;Temp;Humidity;BMP_temperature;BMP_pressure;BME280_temperature;BME280_humidity;BME280_pressure;Samples;Min_cycle;Max_cycle;Signal;HPM_P1;HPM_P2
2023/02/28 00:00:12;;;;;;;57.58;37.30;;;5.10;99.90;;;;;;5117859;27;20061;-53
2023/02/28 00:02:41;;;;;;;57.55;38.53;;;4.90;99.90;;;;;;5106733;27;20043;-53
2023/02/28 00:05:08;;;;;;;63.67;41.67;;;4.70;99.90;;;;;;5127345;27;20062;-55
2023/02/28 00:07:35;;;;;;;63.67;41.70;;;4.50;99.90;;;;;;5107021;28;20055;-55
2023/02/28 00:10:02;;;;;;;60.78;39.17;;;4.50;99.90;;;;;;5127575;27;20031;-53
2023/02/28 00:12:28;;;;;;;62.13;39.58;;;4.60;99.90;;;;;;5125639;27;20026;-55
2023/02/28 00:14:53;;;;;;;56.60;37.05;;;4.50;99.90;;;;;;5115848;27;20401;-56
2023/02/28 00:17:20;;;;;;;61.55;38.15;;;4.60;99.90;;;;;;5127520;27;20076;-56
2023/02/28 00:19:51;;;;;;;55.28;36.67;;;4.40;99.90;;;;;;5116354;27;20048;-57
2023/02/28 00:22:21;;;;;;;58.47;37.25;;;4.50;99.90;;;;;;5101366;27;20047;-53
2023/02/28 00:24:47;;;;;;;54.67;36.38;;;4.80;99.90;;;;;;5124877;27;20028;-55
2023/02/28 00:27:13;;;;;;;50.05;34.67;;;4.80;99.90;;;;;;5126328;27;20493;-56
2023/02/28 00:29:39;;;;;;;50.25;32.22;;;4.70;99.90;;;;;;5124557;27;20416;-54
2023/02/28 00:32:06;;;;;;;48.42;32.90;;;4.70;99.90;;;;;;5124765;27;20034;-57
2023/02/28 00:34:37;;;;;;;51.92;33.45;;;4.50;99.90;;;;;;5124891;27;20023;-55
2023/02/28 00:37:08;;;;;;;47.30;31.48;;;4.40;99.90;;;;;;5128023;27;20039;-53
2023/02/28 00:39:36;;;;;;;47.75;33.63;;;4.30;99.90;;;;;;5123546;27;20058;-53
2023/02/28 00:42:03;;;;;;;47.80;31.33;;;4.60;99.90;;;;;;5123855;27;20023;-55
2023/02/28 00:44:29;;;;;;;45.72;30.27;;;4.80;99.90;;;;;;5118051;27;20119;-55
2023/02/28 00:46:56;;;;;;;43.28;31.05;;;5.10;99.90;;;;;;5126880;27;20035;-57
2023/02/28 00:49:22;;;;;;;44.97;31.08;;;5.10;99.90;;;;;;5118082;27;20027;-55
2023/02/28 00:51:48;;;;;;;41.67;29.83;;;5.20;99.90;;;;;;5126431;27;20023;-52
2023/02/28 00:54:14;;;;;;;43.85;29.40;;;5.30;99.90;;;;;;5126539;27;20031;-53
2023/02/28 00:56:40;;;;;;;41.83;29.60;;;5.20;99.90;;;;;;5124711;27;20027;-56
2023/02/28 00:59:06;;;;;;;40.83;29.00;;;5.10;99.90;;;;;;5105913;28;20128;-54
2023/02/28 01:01:32;;;;;;;40.50;28.77;;;5.20;99.90;;;;;;5117524;27;20509;-55
2023/02/28 01:03:57;;;;;;;43.45;30.67;;;5.10;99.90;;;;;;5124834;27;20046;-53
2023/02/28 01:06:23;;;;;;;41.15;29.08;;;4.90;99.90;;;;;;5125474;27;20093;-55
2023/02/28 01:08:49;;;;;;;42.50;29.95;;;5.00;99.90;;;;;;5126076;27;20031;-55
2023/02/28 01:11:17;;;;;;;41.25;29.60;;;4.90;99.90;;;;;;5126348;27;20023;-53
2023/02/28 01:13:44;;;;;;;46.92;31.00;;;4.70;99.90;;;;;;5125968;27;20069;-54
2023/02/28 01:16:10;;;;;;;43.80;31.33;;;4.90;99.90;;;;;;5115390;27;20471;-55
2023/02/28 01:18:36;;;;;;;46.50;32.25;;;4.90;99.90;;;;;;5125850;27;20022;-55
2023/02/28 01:21:12;;;;;;;44.88;32.33;;;4.80;99.90;;;;;;5126242;27;20042;-56
2023/02/28 01:23:39;;;;;;;53.70;35.97;;;4.90;99.90;;;;;;5122517;27;20051;-57
2023/02/28 01:26:11;;;;;;;54.13;36.78;;;5.00;99.90;;;;;;5126274;27;20075;-55
2023/02/28 01:28:37;;;;;;;;;;;5.20;99.90;;;;;;5125208;27;20034;-53
2023/02/28 01:31:03;;;;;;;54.67;35.72;;;5.20;99.90;;;;;;5115491;27;19911;-53
2023/02/28 01:33:29;;;;;;;51.53;35.13;;;5.20;99.90;;;;;;5121125;27;20044;-54
2023/02/28 01:36:12;;;;;;;55.03;36.00;;;5.20;99.90;;;;;;5124467;27;20030;-54
2023/02/28 01:38:38;;;;;;;51.80;36.25;;;5.20;99.90;;;;;;5124598;27;20027;-54
2023/02/28 01:41:05;;;;;;;45.10;31.33;;;5.20;99.90;;;;;;5123492;27;20037;-53
2023/02/28 01:43:53;;;;;;;47.08;32.83;;;5.30;99.90;;;;;;5123344;27;20035;-57
2023/02/28 01:46:18;;;;;;;42.67;30.67;;;5.30;99.90;;;;;;5113541;28;20081;-56
2023/02/28 01:48:57;;;;;;;44.15;30.90;;;5.30;99.90;;;;;;5125490;27;20026;-54
2023/02/28 01:51:32;;;;;;;42.75;30.38;;;5.40;99.90;;;;;;5122381;27;20118;-54
2023/02/28 01:54:05;;;;;;;48.38;31.75;;;5.40;99.90;;;;;;5126367;27;20055;-55
2023/02/28 01:56:36;;;;;;;42.40;31.50;;;5.40;99.90;;;;;;5125447;27;20022;-54
2023/02/28 01:59:03;;;;;;;46.45;31.65;;;5.30;99.90;;;;;;5124623;27;20023;-56
2023/02/28 02:01:30;;;;;;;46.97;32.42;;;5.30;99.90;;;;;;5114118;27;20062;-52
2023/02/28 02:04:02;;;;;;;45.15;30.50;;;5.30;99.90;;;;;;5124790;27;20049;-53
2023/02/28 02:06:47;;;;;;;42.20;30.05;;;5.30;99.90;;;;;;5116875;27;20035;-53
2023/02/28 02:09:13;;;;;;;43.75;30.25;;;5.40;99.90;;;;;;5122262;27;20043;-53
2023/02/28 02:11:42;;;;;;;47.13;32.00;;;5.40;99.90;;;;;;5121317;27;20471;-52
2023/02/28 02:14:35;;;;;;;46.65;31.27;;;5.50;99.90;;;;;;5125648;27;20043;-53
2023/02/28 02:17:16;;;;;;;37.40;26.48;;;5.40;99.90;;;;;;5122235;27;20038;-54
2023/02/28 02:20:06;;;;;;;35.42;25.77;;;5.40;99.90;;;;;;5130587;27;20088;-54
2023/02/28 02:23:05;;;;;;;33.88;24.35;;;5.20;99.90;;;;;;5125326;27;20031;-56
2023/02/28 02:25:52;;;;;;;32.40;22.60;;;5.20;99.90;;;;;;5124261;27;20072;-55
2023/02/28 02:28:46;;;;;;;30.13;21.83;;;5.00;99.90;;;;;;5125150;28;20026;-57
2023/02/28 02:31:51;;;;;;;28.83;21.02;;;4.70;99.90;;;;;;5122579;28;20027;-56
2023/02/28 02:34:43;;;;;;;28.13;21.67;;;4.80;99.90;;;;;;5131214;28;20038;-56
2023/02/28 02:37:31;;;;;;;30.55;21.50;;;4.80;99.90;;;;;;5129479;28;20035;-55
2023/02/28 02:40:23;;;;;;;37.33;27.23;;;4.90;99.90;;;;;;5128896;28;20172;-54
2023/02/28 02:43:08;;;;;;;31.98;23.80;;;5.00;99.90;;;;;;5126058;28;20138;-53
2023/02/28 02:45:48;;;;;;;25.55;19.38;;;5.10;99.90;;;;;;5128736;27;20036;-53
2023/02/28 02:48:19;;;;;;;24.67;18.17;;;5.00;99.90;;;;;;5121840;27;20024;-55
2023/02/28 02:50:58;;;;;;;28.25;20.10;;;5.00;99.90;;;;;;5122693;28;20106;-53
2023/02/28 02:53:49;;;;;;;25.92;19.13;;;4.90;99.90;;;;;;5117099;27;20072;-54
2023/02/28 02:56:17;;;;;;;23.35;16.88;;;4.90;99.90;;;;;;5120868;28;20031;-55
2023/02/28 02:58:44;;;;;;;24.15;18.70;;;4.70;99.90;;;;;;5121097;27;20402;-55
2023/02/28 03:01:27;;;;;;;24.02;18.20;;;4.80;99.90;;;;;;5118993;28;20447;-57
2023/02/28 03:04:00;;;;;;;23.70;17.45;;;5.00;99.90;;;;;;5121928;27;20043;-54
2023/02/28 03:06:26;;;;;;;26.05;18.42;;;5.00;99.90;;;;;;5117863;27;20031;-56
2023/02/28 03:08:52;;;;;;;118.95;91.22;;;5.00;99.90;;;;;;5122249;28;20023;-56
2023/02/28 03:11:20;;;;;;;29.55;21.00;;;5.20;99.90;;;;;;5122593;27;20061;-53
2023/02/28 03:14:00;;;;;;;28.95;23.45;;;5.30;99.90;;;;;;5122546;27;20035;-54
2023/02/28 03:16:36;;;;;;;25.83;20.08;;;5.30;99.90;;;;;;5123923;27;20027;-57
2023/02/28 03:19:20;;;;;;;27.08;20.88;;;5.50;99.90;;;;;;5117491;27;20032;-55
2023/02/28 03:21:51;;;;;;;33.72;21.48;;;5.50;99.90;;;;;;5125682;27;20027;-54
2023/02/28 03:24:41;;;;;;;37.20;29.48;;;5.50;99.90;;;;;;5126058;27;20048;-55
2023/02/28 03:27:15;;;;;;;28.40;21.85;;;5.50;99.90;;;;;;5125213;27;20122;-52
2023/02/28 03:29:47;;;;;;;27.20;19.23;;;5.10;99.90;;;;;;5134249;27;20076;-54
2023/02/28 03:32:33;;;;;;;27.40;20.80;;;5.00;99.90;;;;;;5128272;27;20047;-55
2023/02/28 03:35:22;;;;;;;30.52;21.70;;;5.00;99.90;;;;;;5126296;27;20027;-55
2023/02/28 03:37:52;;;;;;;30.45;22.00;;;5.10;99.90;;;;;;5114558;28;20031;-56
2023/02/28 03:40:23;;;;;;;35.05;25.08;;;5.20;99.90;;;;;;5113600;28;20390;-56
2023/02/28 03:42:55;;;;;;;36.85;25.92;;;5.10;99.90;;;;;;5113485;28;20740;-55
2023/02/28 03:45:28;;;;;;;;;;;5.20;99.90;;;;;;5114128;28;20105;-53
2023/02/28 03:48:10;;;;;;;32.28;21.77;;;5.20;99.90;;;;;;5110496;28;19908;-53
2023/02/28 03:50:41;;;;;;;37.35;26.58;;;5.10;99.90;;;;;;5113355;28;20495;-53
2023/02/28 03:53:13;;;;;;;36.80;25.60;;;4.90;99.90;;;;;;5113483;28;20063;-53
2023/02/28 03:55:48;;;;;;;32.70;25.30;;;4.70;99.90;;;;;;5113629;28;20062;-53
2023/02/28 03:59:04;;;;;;;33.40;24.23;;;4.60;99.90;;;;;;5105887;28;20050;-56
2023/02/28 04:01:41;;;;;;;36.80;27.95;;;4.50;99.90;;;;;;5041808;28;20071;-53
2023/02/28 04:04:08;;;;;;;34.47;23.27;;;4.50;99.90;;;;;;5041601;28;20063;-55
2023/02/28 04:06:34;;;;;;;34.35;25.65;;;4.60;99.90;;;;;;5037920;28;20033;-56
2023/02/28 04:09:01;;;;;;;36.72;25.85;;;4.60;99.90;;;;;;5044490;28;20047;-54
2023/02/28 04:11:34;;;;;;;33.53;24.85;;;4.80;99.90;;;;;;5039215;28;20080;-56
2023/02/28 04:14:02;;;;;;;33.58;24.30;;;5.00;99.90;;;;;;5040925;28;20068;-57
2023/02/28 04:16:28;;;;;;;36.17;25.60;;;4.90;99.90;;;;;;5062577;28;20435;-55
2023/02/28 04:18:53;;;;;;;42.72;38.10;;;4.90;99.90;;;;;;5062092;28;20048;-54
2023/02/28 04:21:22;;;;;;;35.53;30.20;;;4.90;99.90;;;;;;5061533;28;20115;-56
2023/02/28 04:23:48;;;;;;;35.97;25.95;;;5.20;99.90;;;;;;5062072;28;20048;-55
2023/02/28 04:26:13;;;;;;;66.72;42.38;;;5.30;99.90;;;;;;5063477;28;20045;-54
2023/02/28 04:28:39;;;;;;;36.92;23.67;;;5.40;99.90;;;;;;5061662;28;20064;-56
2023/02/28 04:31:05;;;;;;;29.95;20.08;;;5.30;99.90;;;;;;5062651;28;20031;-55
2023/02/28 04:33:32;;;;;;;27.77;19.90;;;5.30;99.90;;;;;;5121606;27;20505;-55
2023/02/28 04:36:05;;;;;;;65.40;36.33;;;5.40;99.90;;;;;;5122952;27;20080;-55
2023/02/28 04:38:38;;;;;;;75.93;42.22;;;5.40;99.90;;;;;;5125261;27;20024;-54
2023/02/28 04:41:05;;;;;;;128.02;61.30;;;5.50;99.90;;;;;;5127915;27;20035;-57
2023/02/28 04:43:32;;;;;;;100.07;51.08;;;5.50;99.90;;;;;;5129293;27;20142;-53
2023/02/28 04:46:01;;;;;;;64.25;35.45;;;5.50;99.90;;;;;;5122536;27;20378;-56
2023/02/28 04:48:32;;;;;;;105.30;47.75;;;5.60;99.90;;;;;;5124362;27;20080;-54
2023/02/28 04:51:17;;;;;;;45.45;25.85;;;5.60;99.90;;;;;;5123251;27;20027;-56
2023/02/28 04:53:43;;;;;;;65.93;36.85;;;5.60;99.90;;;;;;5124304;27;20035;-55
2023/02/28 04:56:12;;;;;;;122.28;63.90;;;5.60;99.90;;;;;;5124508;27;20604;-56
2023/02/28 04:58:39;;;;;;;97.82;49.50;;;5.70;99.90;;;;;;5124396;27;20027;-56
2023/02/28 05:01:17;;;;;;;46.17;29.63;;;5.70;99.90;;;;;;5124257;27;20131;-54
2023/02/28 05:03:43;;;;;;;47.22;34.85;;;5.60;99.90;;;;;;5124280;27;20031;-55
2023/02/28 05:06:11;;;;;;;55.47;34.47;;;5.70;99.90;;;;;;5122222;27;20027;-57
2023/02/28 05:08:37;;;;;;;88.47;54.13;;;5.70;99.90;;;;;;5123975;27;20023;-57
2023/02/28 05:11:04;;;;;;;93.15;55.50;;;5.80;99.90;;;;;;5117627;27;20379;-57
2023/02/28 05:13:30;;;;;;;91.72;54.47;;;5.90;99.90;;;;;;5123658;27;20023;-54
2023/02/28 05:15:56;;;;;;;129.55;81.10;;;5.80;99.90;;;;;;5120238;27;20046;-54
2023/02/28 05:18:21;;;;;;;47.15;33.40;;;5.70;99.90;;;;;;5124179;27;20063;-56
2023/02/28 05:20:47;;;;;;;52.58;37.47;;;5.90;99.90;;;;;;5125300;27;20419;-56
2023/02/28 05:23:14;;;;;;;25.13;20.25;;;5.90;99.90;;;;;;5123512;27;20114;-56
2023/02/28 05:25:40;;;;;;;23.40;19.35;;;5.90;99.90;;;;;;5117359;27;20023;-54
2023/02/28 05:28:07;;;;;;;22.05;17.65;;;5.80;99.90;;;;;;5106601;27;20039;-56
2023/02/28 05:30:33;;;;;;;21.40;17.42;;;5.90;99.90;;;;;;5126043;27;20058;-57
2023/02/28 05:32:59;;;;;;;20.02;17.42;;;5.90;99.90;;;;;;5124951;27;20069;-55
2023/02/28 05:35:26;;;;;;;20.40;17.63;;;5.90;99.90;;;;;;5124470;27;20150;-55
2023/02/28 05:37:51;;;;;;;20.92;18.15;;;5.90;99.90;;;;;;5125237;27;20475;-56
2023/02/28 05:40:20;;;;;;;23.83;16.45;;;6.00;99.90;;;;;;5125933;27;20034;-54
2023/02/28 05:42:46;;;;;;;19.02;16.33;;;6.10;99.90;;;;;;5116785;27;20082;-55
2023/02/28 05:45:12;;;;;;;22.08;16.52;;;6.10;99.90;;;;;;5133034;27;20035;-56
2023/02/28 05:47:38;;;;;;;21.67;17.33;;;;;;;;;;5126710;27;20031;-54
2023/02/28 05:50:05;;;;;;;23.67;17.27;;;6.10;99.90;;;;;;5116723;27;20383;-56
2023/02/28 05:52:31;;;;;;;21.45;17.10;;;6.20;99.90;;;;;;5125113;27;20038;-55
2023/02/28 05:54:57;;;;;;;21.92;16.85;;;6.10;99.90;;;;;;5122921;27;20031;-56
2023/02/28 05:57:23;;;;;;;20.35;16.42;;;6.10;99.90;;;;;;5125279;27;20031;-54
2023/02/28 05:59:49;;;;;;;23.98;16.58;;;5.90;99.90;;;;;;5121783;27;20031;-57
2023/02/28 06:02:16;;;;;;;19.83;16.00;;;5.90;99.90;;;;;;5125512;27;20141;-57
2023/02/28 06:04:43;;;;;;;28.73;20.67;;;5.80;99.90;;;;;;5130755;27;20386;-56
2023/02/28 06:07:09;;;;;;;27.38;20.35;;;5.80;99.90;;;;;;5125069;27;20034;-57
2023/02/28 06:09:35;;;;;;;28.88;22.45;;;5.80;99.90;;;;;;5127158;27;20033;-55
2023/02/28 06:12:03;;;;;;;25.00;20.55;;;5.70;99.90;;;;;;5125175;27;20118;-56
2023/02/28 06:14:31;;;;;;;26.20;21.10;;;5.80;99.90;;;;;;5125853;27;20572;-54
2023/02/28 06:16:57;;;;;;;24.77;19.25;;;5.90;99.90;;;;;;5104269;28;20039;-55
2023/02/28 06:19:25;;;;;;;25.60;18.02;;;5.90;99.90;;;;;;5129152;27;20427;-56
2023/02/28 06:21:52;;;;;;;29.67;22.27;;;5.80;99.90;;;;;;5127538;27;20038;-57
2023/02/28 06:24:19;;;;;;;29.10;23.98;;;5.80;99.90;;;;;;5123004;27;20067;-55
2023/02/28 06:26:45;;;;;;;29.67;20.80;;;5.90;99.90;;;;;;5133153;27;20024;-57
2023/02/28 06:29:12;;;;;;;29.80;24.30;;;5.90;99.90;;;;;;5106014;28;20035;-55
2023/02/28 06:31:38;;;;;;;29.15;21.30;;;5.90;99.90;;;;;;5124890;28;20103;-56
2023/02/28 06:34:04;;;;;;;33.15;26.05;;;5.80;99.90;;;;;;5124278;28;20056;-56
2023/02/28 06:36:30;;;;;;;42.88;38.10;;;5.80;99.90;;;;;;5120576;27;20366;-55
2023/02/28 06:38:56;;;;;;;46.45;38.97;;;5.90;99.90;;;;;;5122687;27;20031;-57
2023/02/28 06:41:26;;;;;;;105.43;80.20;;;5.90;99.90;;;;;;5123235;27;20039;-55
2023/02/28 06:43:53;;;;;;;48.97;34.00;;;6.00;99.90;;;;;;5125001;28;20535;-56
2023/02/28 06:46:19;;;;;;;23.83;18.70;;;6.00;99.90;;;;;;5127510;27;20031;-54
2023/02/28 06:48:46;;;;;;;44.45;27.00;;;5.90;99.90;;;;;;5120124;27;20027;-56
2023/02/28 06:51:15;;;;;;;44.42;27.10;;;5.90;99.90;;;;;;5123192;28;20141;-56
2023/02/28 06:53:41;;;;;;;25.73;18.88;;;6.00;99.90;;;;;;5123018;27;20544;-55
2023/02/28 06:56:12;;;;;;;24.63;18.30;;;6.00;99.90;;;;;;5126174;27;20050;-54
2023/02/28 06:58:40;;;;;;;20.67;16.30;;;5.60;99.90;;;;;;5132738;27;20510;-57
2023/02/28 07:01:07;;;;;;;20.80;15.98;;;5.60;99.90;;;;;;5133363;27;20050;-57
2023/02/28 07:03:34;;;;;;;21.92;16.30;;;5.40;99.90;;;;;;5134161;27;20054;-55
2023/02/28 07:06:00;;;;;;;25.83;17.08;;;5.70;99.90;;;;;;5138255;27;20019;-55
2023/02/28 07:08:26;;;;;;;22.08;15.43;;;5.80;99.90;;;;;;5138029;27;20027;-57
2023/02/28 07:10:55;;;;;;;19.85;15.13;;;5.60;99.90;;;;;;5135900;27;20401;-56
2023/02/28 07:13:21;;;;;;;23.70;16.50;;;5.70;99.90;;;;;;5130882;27;20147;-54
2023/02/28 07:16:13;;;;;;;20.83;14.50;;;5.60;99.90;;;;;;5133853;27;20054;-55
2023/02/28 07:18:39;;;;;;;32.00;20.15;;;5.20;99.90;;;;;;5130008;27;20035;-58
2023/02/28 07:21:07;;;;;;;28.58;20.08;;;5.40;99.90;;;;;;5135051;27;20471;-57
2023/02/28 07:23:34;;;;;;;23.88;15.90;;;5.60;99.90;;;;;;5115115;27;20440;-55
2023/02/28 07:26:00;;;;;;;23.88;16.20;;;5.60;99.90;;;;;;5134797;27;20477;-55
2023/02/28 07:28:26;;;;;;;23.55;17.05;;;5.50;99.90;;;;;;5112656;27;20035;-55
2023/02/28 07:30:52;;;;;;;21.17;16.38;;;5.40;99.90;;;;;;5135075;27;20088;-57
2023/02/28 07:33:17;;;;;;;19.55;13.60;;;5.40;99.90;;;;;;5134775;27;20462;-55
2023/02/28 07:35:44;;;;;;;21.15;14.30;;;5.40;99.90;;;;;;5134496;27;20463;-54
2023/02/28 07:38:10;;;;;;;22.02;14.65;;;5.30;99.90;;;;;;5137009;27;20023;-53
2023/02/28 07:40:36;;;;;;;20.85;15.07;;;5.20;99.90;;;;;;5130627;27;20091;-53
2023/02/28 07:43:03;;;;;;;18.08;13.13;;;5.30;99.90;;;;;;5125947;27;20055;-54
2023/02/28 07:45:31;;;;;;;18.15;12.90;;;5.10;99.90;;;;;;5125581;27;20035;-53
2023/02/28 07:47:57;;;;;;;18.95;12.65;;;4.90;99.90;;;;;;5125473;27;20031;-53
2023/02/28 07:50:23;;;;;;;16.20;11.85;;;4.90;99.90;;;;;;5121583;27;20028;-53
2023/02/28 07:52:49;;;;;;;20.00;13.35;;;4.80;99.90;;;;;;5128283;27;20121;-54
2023/02/28 07:55:16;;;;;;;17.77;12.38;;;4.70;99.90;;;;;;5135612;27;21101;-52
2023/02/28 07:57:42;;;;;;;17.50;12.45;;;4.70;99.90;;;;;;5135210;27;20548;-53
2023/02/28 08:00:10;;;;;;;19.15;13.00;;;4.90;99.90;;;;;;5134957;27;20375;-55
2023/02/28 08:02:36;;;;;;;17.92;13.05;;;5.10;99.90;;;;;;5133553;27;20103;-56
2023/02/28 08:05:02;;;;;;;20.45;13.80;;;5.20;99.90;;;;;;5125409;27;20378;-56
2023/02/28 08:07:28;;;;;;;21.15;14.10;;;5.10;99.90;;;;;;5125732;27;20097;-56
2023/02/28 08:09:53;;;;;;;20.85;14.05;;;5.30;99.90;;;;;;5128981;27;20546;-50
2023/02/28 08:12:19;;;;;;;17.02;13.32;;;5.20;99.90;;;;;;5124369;27;20429;-52
2023/02/28 08:14:45;;;;;;;19.50;14.45;;;5.40;99.90;;;;;;5111895;27;20161;-54
2023/02/28 08:17:11;;;;;;;16.98;12.70;;;5.40;99.90;;;;;;5121883;27;20031;-52
2023/02/28 08:19:37;;;;;;;20.20;13.88;;;5.30;99.90;;;;;;5122307;27;20076;-52
2023/02/28 08:22:03;;;;;;;20.38;13.95;;;5.50;99.90;;;;;;5124913;27;20069;-52
2023/02/28 08:24:29;;;;;;;18.75;13.88;;;5.60;99.90;;;;;;5110897;27;20075;-52
2023/02/28 08:26:55;;;;;;;25.02;17.45;;;5.40;99.90;;;;;;5126392;27;20098;-51
2023/02/28 08:29:21;;;;;;;27.10;18.55;;;5.40;99.90;;;;;;5128243;27;20023;-52
2023/02/28 08:31:47;;;;;;;23.08;16.08;;;5.50;99.90;;;;;;5125954;27;20080;-52
2023/02/28 08:34:15;;;;;;;19.08;13.85;;;5.60;99.90;;;;;;5105749;27;20043;-51
2023/02/28 08:36:41;;;;;;;19.25;14.32;;;5.70;99.90;;;;;;5121208;27;20539;-52
2023/02/28 08:39:07;;;;;;;29.95;20.52;;;5.20;99.90;;;;;;5124956;27;20127;-52
2023/02/28 08:41:33;;;;;;;23.77;14.45;;;5.20;99.90;;;;;;5108088;27;20482;-52
2023/02/28 08:44:00;;;;;;;21.85;15.63;;;5.30;99.90;;;;;;5129403;27;20043;-52
2023/02/28 08:46:26;;;;;;;22.33;15.07;;;5.30;99.90;;;;;;5122542;27;20028;-52
2023/02/28 08:48:59;;;;;;;22.23;15.88;;;5.30;99.90;;;;;;5127527;27;20035;-52
2023/02/28 08:51:27;;;;;;;20.55;14.55;;;5.40;99.90;;;;;;5126110;27;20386;-52
2023/02/28 08:53:55;;;;;;;22.00;15.77;;;5.60;99.90;;;;;;5107288;27;20047;-52
2023/02/28 08:56:21;;;;;;;26.45;16.95;;;5.70;99.90;;;;;;5125204;27;20080;-52
2023/02/28 08:58:50;;;;;;;24.25;16.75;;;5.70;99.90;;;;;;5126687;27;20031;-52
2023/02/28 09:01:21;;;;;;;21.38;15.50;;;5.70;99.90;;;;;;5121976;27;20466;-52
2023/02/28 09:03:49;;;;;;;21.17;15.98;;;5.70;99.90;;;;;;5112196;27;20050;-53
2023/02/28 09:06:18;;;;;;;20.60;15.18;;;5.70;99.90;;;;;;5121841;27;20031;-52
2023/02/28 09:08:44;;;;;;;23.83;16.55;;;5.70;99.90;;;;;;5124181;27;20106;-53
2023/02/28 09:11:11;;;;;;;25.75;18.02;;;;;;;;;;5110821;27;20051;-53
2023/02/28 09:13:37;;;;;;;23.38;15.50;;;6.00;99.90;;;;;;5129926;27;20027;-53
2023/02/28 09:16:05;;;;;;;26.98;19.13;;;6.10;99.90;;;;;;5122052;27;20031;-53
2023/02/28 09:18:31;;;;;;;28.83;19.17;;;6.20;99.90;;;;;;5123933;27;20024;-53
2023/02/28 09:20:57;;;;;;;28.27;18.60;;;6.30;99.90;;;;;;5119964;27;20027;-52
2023/02/28 09:23:24;;;;;;;24.20;16.52;;;6.00;99.90;;;;;;5124388;27;20037;-52
2023/02/28 09:25:52;;;;;;;23.30;16.85;;;5.90;99.90;;;;;;5075288;28;20760;-53
2023/02/28 09:28:19;;;;;;;23.55;16.20;;;5.90;99.90;;;;;;5096525;28;20035;-53
2023/02/28 09:30:46;;;;;;;22.15;16.17;;;6.10;99.90;;;;;;5063342;28;20587;-54
2023/02/28 09:33:13;;;;;;;34.38;21.15;;;6.10;99.90;;;;;;5096966;28;20385;-54
2023/02/28 09:35:39;;;;;;;25.13;16.70;;;5.80;99.90;;;;;;5103374;28;20040;-53
2023/02/28 09:38:05;;;;;;;21.38;15.57;;;5.90;99.90;;;;;;5100111;28;20035;-52
2023/02/28 09:40:31;;;;;;;25.58;15.60;;;6.00;99.90;;;;;;5017274;28;20086;-53
2023/02/28 09:42:59;;;;;;;40.17;29.73;;;6.20;99.90;;;;;;5096964;28;20231;-53
2023/02/28 09:45:39;;;;;;;27.42;20.17;;;6.40;99.90;;;;;;5100681;28;20054;-53
2023/02/28 09:48:28;;;;;;;27.88;19.80;;;6.40;99.90;;;;;;5104862;28;20027;-51
2023/02/28 09:51:03;;;;;;;28.55;22.38;;;6.60;99.90;;;;;;5066560;28;20044;-52
2023/02/28 09:53:35;;;;;;;26.48;18.35;;;6.70;99.90;;;;;;5045611;28;20449;-53
2023/02/28 09:56:01;;;;;;;;;;;;;;;;;;5034326;28;20044;-52
2023/02/28 09:58:30;;;;;;;24.92;17.55;;;;;;;;;;5108678;28;20293;-53
2023/02/28 10:01:04;;;;;;;27.33;18.75;;;;;;;;;;5104308;28;20090;-52
2023/02/28 10:03:33;;;;;;;27.48;18.75;;;;;;;;;;5107549;28;20043;-53
2023/02/28 10:05:59;;;;;;;25.40;17.67;;;;;;;;;;5106604;28;20035;-53
2023/02/28 10:08:31;;;;;;;30.73;20.27;;;;;;;;;;5102557;28;20540;-52
2023/02/28 10:11:02;;;;;;;29.02;20.25;;;;;;;;;;5106085;28;20019;-54
2023/02/28 10:13:40;;;;;;;28.15;18.33;;;;;;;;;;5110084;28;20042;-53
2023/02/28 10:16:09;;;;;;;28.13;18.58;;;;;;;;;;5073599;28;20036;-52
2023/02/28 10:18:47;;;;;;;27.63;19.15;;;;;;;;;;5106695;28;20508;-53
2023/02/28 10:21:42;;;;;;;27.10;18.92;;;;;;;;;;5105472;28;20542;-53
2023/02/28 10:24:44;;;;;;;25.98;18.13;;;;;;;;;;5049150;28;20445;-52
2023/02/28 10:27:18;;;;;;;22.88;15.57;;;;;;;;;;4963316;28;20070;-52
2023/02/28 10:29:45;;;;;;;23.58;16.60;;;;;;;;;;4972841;28;20099;-52
2023/02/28 10:32:16;;;;;;;26.02;17.25;;;6.60;99.90;;;;;;4952079;28;20034;-52
2023/02/28 10:34:42;;;;;;;24.60;17.33;;;6.90;99.90;;;;;;4966617;28;20066;-52
2023/02/28 10:37:07;;;;;;;24.95;16.88;;;6.90;99.90;;;;;;4967439;28;20070;-52
2023/02/28 10:39:45;;;;;;;26.35;18.67;;;7.20;99.90;;;;;;4943394;28;20486;-53
2023/02/28 10:42:29;;;;;;;26.27;17.63;;;7.00;99.90;;;;;;4972779;28;20034;-53
2023/02/28 10:45:16;;;;;;;24.88;17.75;;;7.10;99.90;;;;;;4978350;28;20517;-52
2023/02/28 10:48:04;;;;;;;31.52;20.45;;;7.10;99.90;;;;;;4972690;28;20043;-52
2023/02/28 10:50:33;;;;;;;30.70;20.75;;;7.10;99.90;;;;;;4978299;28;20042;-53
2023/02/28 10:53:17;;;;;;;31.65;21.40;;;7.00;99.90;;;;;;4974551;28;20027;-53
2023/02/28 10:55:43;;;;;;;30.98;20.58;;;7.00;99.90;;;;;;4969834;28;20069;-53
2023/02/28 10:58:23;;;;;;;32.25;22.20;;;7.10;99.90;;;;;;4958051;28;20494;-52
2023/02/28 11:00:50;;;;;;;29.23;20.13;;;7.10;99.90;;;;;;5051798;28;20083;-53
2023/02/28 11:03:32;;;;;;;30.13;22.15;;;7.00;99.90;;;;;;5115954;28;20039;-52
2023/02/28 11:06:03;;;;;;;30.58;20.35;;;7.10;99.90;;;;;;5118318;28;20027;-53
2023/02/28 11:08:30;;;;;;;30.60;21.55;;;6.80;99.90;;;;;;5118957;28;20035;-53
2023/02/28 11:10:59;;;;;;;32.47;22.45;;;6.80;99.90;;;;;;5122664;28;20034;-52
2023/02/28 11:13:35;;;;;;;35.88;25.58;;;6.90;99.90;;;;;;5117629;28;20051;-53
2023/02/28 11:16:04;;;;;;;37.88;26.15;;;6.90;99.90;;;;;;5124774;28;20147;-54
2023/02/28 11:18:32;;;;;;;41.42;27.98;;;6.80;99.90;;;;;;5129143;28;20046;-52
2023/02/28 11:21:00;;;;;;;44.83;31.77;;;6.70;99.90;;;;;;5123366;27;20020;-53
2023/02/28 11:23:29;;;;;;;54.53;35.28;;;7.00;99.90;;;;;;5121992;28;20039;-53
2023/02/28 11:25:59;;;;;;;59.35;41.40;;;7.10;99.90;;;;;;5121639;28;20034;-53
2023/02/28 11:28:29;;;;;;;125.63;87.68;;;7.10;99.90;;;;;;5118559;28;20494;-52
2023/02/28 11:31:16;;;;;;;62.20;44.10;;;7.10;99.90;;;;;;5103593;28;20404;-52
2023/02/28 11:33:51;;;;;;;43.25;30.05;;;6.90;99.90;;;;;;5115618;28;20028;-54
2023/02/28 11:36:26;;;;;;;54.15;34.55;;;6.80;99.90;;;;;;5102062;28;20032;-53
2023/02/28 11:38:55;;;;;;;39.30;25.52;;;6.80;99.90;;;;;;5099929;28;20039;-52
2023/02/28 11:41:44;;;;;;;41.63;27.45;;;7.00;99.90;;;;;;5102623;28;20067;-52
2023/02/28 11:44:43;;;;;;;42.13;28.58;;;6.90;99.90;;;;;;5102183;28;20519;-52
2023/02/28 11:47:26;;;;;;;41.63;27.13;;;7.20;99.90;;;;;;5104019;28;20040;-53
2023/02/28 11:50:14;;;;;;;41.42;29.05;;;7.20;99.90;;;;;;5091276;28;20031;-53
2023/02/28 11:53:08;;;;;;;41.83;26.90;;;7.10;99.90;;;;;;5101756;28;20491;-52
2023/02/28 11:55:54;;;;;;;42.22;27.80;;;7.20;99.90;;;;;;5031012;28;20639;-52
2023/02/28 11:58:41;;;;;;;44.00;31.48;;;;;;;;;;5032116;28;20548;-52
2023/02/28 12:01:14;;;;;;;54.65;36.28;;;7.00;99.90;;;;;;5031167;28;20157;-53
2023/02/28 12:04:10;;;;;;;56.25;36.95;;;6.90;99.90;;;;;;5031603;28;20082;-55
2023/02/28 12:07:00;;;;;;;55.67;34.58;;;6.90;99.90;;;;;;5039958;28;20232;-50
2023/02/28 12:09:53;;;;;;;45.55;29.83;;;6.50;99.90;;;;;;5070236;28;20037;-44
2023/02/28 12:12:24;;;;;;;49.13;31.90;;;6.70;99.90;;;;;;5071819;28;20107;-53
2023/02/28 12:15:08;;;;;;;48.72;31.05;;;6.80;99.90;;;;;;5071006;28;20032;-55
2023/02/28 12:17:45;;;;;;;57.30;36.00;;;7.00;99.90;;;;;;5070925;28;20021;-53
2023/02/28 12:20:25;;;;;;;59.33;35.72;;;7.10;99.90;;;;;;5072286;28;20414;-54
2023/02/28 12:22:59;;;;;;;63.72;36.80;;;7.20;99.90;;;;;;5071044;28;20097;-52
2023/02/28 12:25:52;;;;;;;58.45;36.92;;;7.30;99.90;;;;;;5070007;28;20048;-54
2023/02/28 12:28:26;;;;;;;43.97;30.10;;;7.20;99.90;;;;;;5069852;28;20036;-56
2023/02/28 12:31:23;;;;;;;49.90;31.23;;;7.20;99.90;;;;;;5071083;28;20475;-52
2023/02/28 12:34:02;;;;;;;51.95;31.00;;;7.20;99.90;;;;;;5124841;27;20046;-54
2023/02/28 12:36:28;;;;;;;46.13;28.02;;;7.30;99.90;;;;;;5134141;27;20026;-55
2023/02/28 12:39:03;;;;;;;55.55;33.25;;;7.40;99.90;;;;;;5110282;27;20050;-55
2023/02/28 12:41:34;;;;;;;61.17;34.63;;;7.50;99.90;;;;;;5126036;27;20038;-56
2023/02/28 12:44:12;;;;;;;46.50;29.55;;;7.50;99.90;;;;;;5105755;27;20058;-53
2023/02/28 12:46:42;;;;;;;46.20;30.50;;;7.60;99.90;;;;;;5124628;27;20027;-51
2023/02/28 12:49:15;;;;;;;49.28;30.02;;;7.50;99.90;;;;;;5124783;27;20099;-53
2023/02/28 12:51:41;;;;;;;48.65;31.42;;;7.10;99.90;;;;;;5117848;27;20023;-57
2023/02/28 12:54:22;;;;;;;46.90;31.35;;;6.90;99.90;;;;;;5125930;27;20157;-57
2023/02/28 12:56:58;;;;;;;45.38;31.08;;;7.10;99.90;;;;;;5126388;27;20027;-53
2023/02/28 13:00:09;;;;;;;43.22;28.35;;;7.10;99.90;;;;;;5124931;27;20114;-56
2023/02/28 13:02:40;;;;;;;42.75;27.00;;;7.30;99.90;;;;;;5098907;28;20104;-55
2023/02/28 13:05:28;;;;;;;106.88;60.88;;;7.30;99.90;;;;;;5112018;28;20106;-51